createdAt,value
2018-05-07T00:00:22.161Z,12.36
2018-05-07T00:01:22.332Z,12.39
2018-05-07T00:02:22.513Z,12.35
2018-05-07T00:03:22.689Z,12.27
2018-05-07T00:04:22.871Z,12.29
2018-05-07T00:05:23.044Z,12.22
2018-05-07T00:06:23.235Z,12.24
2018-05-07T00:07:23.423Z,12.15
2018-05-07T00:08:23.597Z,12.04
2018-05-07T00:09:23.783Z,12.24
2018-05-07T00:10:23.961Z,12.28
2018-05-07T00:11:24.133Z,12.13
2018-05-07T00:12:24.306Z,12.15
2018-05-07T00:13:24.493Z,12.22
2018-05-07T00:14:24.676Z,12.24
2018-05-07T00:15:24.857Z,12.25
2018-05-07T00:16:25.037Z,12.21
2018-05-07T00:17:25.225Z,12.24
2018-05-07T00:18:25.403Z,12.18
2018-05-07T00:19:25.582Z,12.25
2018-05-07T00:20:25.761Z,12.24
2018-05-07T00:21:25.938Z,12.27
2018-05-07T00:22:26.214Z,12.17
2018-05-07T00:23:26.303Z,12.15
2018-05-07T00:24:26.489Z,12.09
2018-05-07T00:25:26.646Z,12.04
2018-05-07T00:26:26.819Z,12.15
2018-05-07T00:27:27.003Z,12.12
2018-05-07T00:28:27.182Z,12.09
2018-05-07T00:29:27.371Z,12.07
2018-05-07T00:30:27.538Z,12.15
2018-05-07T00:31:27.713Z,12.12
2018-05-07T00:32:27.894Z,12.04
2018-05-07T00:33:28.073Z,12.07
2018-05-07T00:34:28.258Z,11.94
2018-05-07T00:35:28.434Z,11.95
2018-05-07T00:36:28.614Z,11.73
2018-05-07T00:37:28.792Z,11.75
2018-05-07T00:38:28.967Z,11.66
2018-05-07T00:39:29.155Z,11.66
2018-05-07T00:40:29.334Z,11.59
2018-05-07T00:41:29.515Z,11.50
2018-05-07T00:42:29.697Z,11.41
2018-05-07T00:43:29.865Z,11.57
2018-05-07T00:44:30.047Z,11.44
2018-05-07T00:45:30.221Z,11.60
2018-05-07T00:46:30.399Z,11.59
2018-05-07T00:47:30.595Z,11.63
2018-05-07T00:48:30.773Z,11.65
2018-05-07T00:49:30.955Z,11.66
2018-05-07T00:50:31.166Z,11.70
2018-05-07T00:51:31.305Z,11.68
2018-05-07T00:52:31.489Z,11.63
2018-05-07T00:53:31.669Z,11.68
2018-05-07T00:54:31.856Z,11.68
2018-05-07T00:55:32.026Z,11.73
2018-05-07T00:56:32.203Z,11.75
2018-05-07T00:57:32.383Z,11.72
2018-05-07T00:58:32.570Z,11.81
2018-05-07T00:59:32.741Z,11.81
2018-05-07T01:00:32.921Z,11.84
2018-05-07T01:01:33.098Z,11.70
2018-05-07T01:02:33.277Z,11.70
2018-05-07T01:03:33.456Z,11.70
2018-05-07T01:04:33.637Z,11.69
2018-05-07T01:05:33.817Z,11.72
2018-05-07T01:06:33.999Z,11.69
2018-05-07T01:07:34.183Z,11.66
2018-05-07T01:08:34.601Z,11.69
2018-05-07T01:09:34.534Z,11.66
2018-05-07T01:10:34.719Z,11.65
2018-05-07T01:11:34.887Z,11.43
2018-05-07T01:12:35.069Z,11.51
2018-05-07T01:13:35.245Z,11.47
2018-05-07T01:14:35.426Z,11.54
2018-05-07T01:15:35.615Z,11.45
2018-05-07T01:16:35.786Z,11.43
2018-05-07T01:17:35.970Z,11.41
2018-05-07T01:18:36.147Z,11.41
2018-05-07T01:19:36.329Z,11.51
2018-05-07T01:20:36.507Z,11.55
2018-05-07T01:21:36.685Z,11.44
2018-05-07T01:22:36.864Z,11.44
2018-05-07T01:23:37.045Z,11.45
2018-05-07T01:24:37.228Z,11.43
2018-05-07T01:25:37.409Z,11.41
2018-05-07T01:26:37.580Z,11.43
2018-05-07T01:27:37.759Z,11.40
2018-05-07T01:28:37.946Z,11.40
2018-05-07T01:29:38.124Z,11.48
2018-05-07T01:30:38.298Z,11.37
2018-05-07T01:31:38.484Z,11.47
2018-05-07T01:32:38.659Z,11.43
2018-05-07T01:33:38.833Z,11.47
2018-05-07T01:34:39.012Z,11.37
2018-05-07T01:35:39.192Z,11.33
2018-05-07T01:36:39.369Z,11.44
2018-05-07T01:37:39.541Z,11.15
2018-05-07T01:38:39.721Z,11.12
2018-05-07T01:39:39.897Z,11.02
2018-05-07T01:40:40.077Z,10.86
2018-05-07T01:41:40.253Z,10.92
2018-05-07T01:42:40.440Z,10.89
2018-05-07T01:43:40.612Z,10.82
2018-05-07T01:44:40.795Z,10.92
2018-05-07T01:45:40.970Z,10.97
2018-05-07T01:46:41.151Z,11.02
2018-05-07T01:47:41.328Z,10.94
2018-05-07T01:48:41.507Z,10.90
2018-05-07T01:49:41.686Z,10.81
2018-05-07T01:50:41.865Z,10.78
2018-05-07T01:51:42.042Z,10.86
2018-05-07T01:52:42.236Z,10.81
2018-05-07T01:53:42.401Z,10.87
2018-05-07T01:54:42.583Z,10.84
2018-05-07T01:55:42.781Z,10.79
2018-05-07T01:56:42.927Z,10.90
2018-05-07T01:57:43.110Z,10.90
2018-05-07T01:58:43.277Z,10.90
2018-05-07T01:59:43.454Z,10.89
2018-05-07T02:00:43.633Z,10.82
2018-05-07T02:01:43.814Z,10.71
2018-05-07T02:02:44.008Z,10.68
2018-05-07T02:03:44.428Z,10.57
2018-05-07T02:04:44.353Z,10.71
2018-05-07T02:05:44.530Z,10.49
2018-05-07T02:06:44.696Z,10.51
2018-05-07T02:07:44.891Z,10.46
2018-05-07T02:08:45.072Z,10.54
2018-05-07T02:09:45.250Z,10.49
2018-05-07T02:10:45.673Z,10.37
2018-05-07T02:11:45.606Z,10.48
2018-05-07T02:12:45.789Z,10.37
2018-05-07T02:13:45.963Z,10.20
2018-05-07T02:14:46.144Z,10.10
2018-05-07T02:15:46.314Z,10.13
2018-05-07T02:16:46.495Z,10.16
2018-05-07T02:17:46.675Z,10.05
2018-05-07T02:18:46.862Z,10.05
2018-05-07T02:19:47.283Z,9.94
2018-05-07T02:20:47.210Z,9.76
2018-05-07T02:21:47.386Z,9.72
2018-05-07T02:22:47.564Z,9.82
2018-05-07T02:23:47.744Z,9.91
2018-05-07T02:24:47.929Z,9.92
2018-05-07T02:25:48.106Z,10.01
2018-05-07T02:26:48.288Z,9.79
2018-05-07T02:27:48.466Z,9.92
2018-05-07T02:28:48.638Z,9.84
2018-05-07T02:29:48.827Z,9.80
2018-05-07T02:30:48.988Z,9.86
2018-05-07T02:31:49.174Z,9.91
2018-05-07T02:32:49.352Z,9.95
2018-05-07T02:33:49.536Z,9.95
2018-05-07T02:34:49.720Z,10.16
2018-05-07T02:35:49.889Z,10.10
2018-05-07T02:36:50.069Z,10.12
2018-05-07T02:37:50.246Z,10.22
2018-05-07T02:38:50.428Z,10.31
2018-05-07T02:40:50.782Z,10.07
2018-05-07T02:41:50.953Z,10.17
2018-05-07T02:42:51.133Z,10.04
2018-05-07T02:43:51.315Z,10.10
2018-05-07T02:44:51.487Z,10.07
2018-05-07T02:45:51.664Z,10.12
2018-05-07T02:46:52.165Z,10.05
2018-05-07T02:47:52.019Z,10.12
2018-05-07T02:48:52.209Z,10.07
2018-05-07T02:50:52.552Z,9.98
2018-05-07T02:51:52.728Z,9.98
2018-05-07T02:52:52.906Z,10.01
2018-05-07T02:53:53.085Z,10.01
2018-05-07T02:54:53.266Z,9.97
2018-05-07T02:55:53.442Z,9.95
2018-05-07T02:56:53.615Z,9.94
2018-05-07T02:57:53.792Z,9.94
2018-05-07T02:58:53.970Z,9.94
2018-05-07T02:59:54.149Z,10.02
2018-05-07T03:00:54.389Z,10.02
2018-05-07T03:01:54.509Z,9.82
2018-05-07T03:02:54.676Z,9.80
2018-05-07T03:03:54.855Z,9.77
2018-05-07T03:04:55.044Z,9.69
2018-05-07T03:05:55.208Z,9.72
2018-05-07T03:06:55.396Z,9.66
2018-05-07T03:07:55.570Z,9.58
2018-05-07T03:08:55.744Z,9.69
2018-05-07T03:09:55.926Z,9.68
2018-05-07T03:10:56.099Z,9.69
2018-05-07T03:11:56.276Z,9.72
2018-05-07T03:12:56.459Z,9.69
2018-05-07T03:13:56.639Z,9.65
2018-05-07T03:14:56.825Z,9.68
2018-05-07T03:15:56.995Z,9.77
2018-05-07T03:16:57.174Z,9.76
2018-05-07T03:17:57.349Z,9.77
2018-05-07T03:18:57.528Z,9.79
2018-05-07T03:19:57.707Z,9.80
2018-05-07T03:20:57.881Z,9.83
2018-05-07T03:21:58.059Z,9.86
2018-05-07T03:22:58.228Z,9.84
2018-05-07T03:23:58.411Z,9.84
2018-05-07T03:24:58.594Z,9.79
2018-05-07T03:25:58.766Z,9.69
2018-05-07T03:26:58.951Z,9.66
2018-05-07T03:27:59.128Z,9.76
2018-05-07T03:28:59.302Z,9.73
2018-05-07T03:29:59.486Z,9.47
2018-05-07T03:30:59.659Z,9.58
2018-05-07T03:31:59.838Z,9.47
2018-05-07T03:33:00.015Z,9.48
2018-05-07T03:34:00.447Z,9.47
2018-05-07T03:35:00.368Z,9.48
2018-05-07T03:36:00.549Z,9.48
2018-05-07T03:37:00.731Z,9.51
2018-05-07T03:38:00.904Z,9.50
2018-05-07T03:39:01.082Z,9.56
2018-05-07T03:40:01.265Z,9.47
2018-05-07T03:41:01.440Z,9.18
2018-05-07T03:42:01.613Z,9.16
2018-05-07T03:43:01.792Z,9.14
2018-05-07T03:44:01.973Z,9.08
2018-05-07T03:45:02.147Z,9.23
2018-05-07T03:46:02.326Z,9.14
2018-05-07T03:48:02.673Z,9.18
2018-05-07T03:49:02.854Z,9.11
2018-05-07T03:50:03.025Z,9.16
2018-05-07T03:51:03.211Z,9.23
2018-05-07T03:52:03.389Z,9.18
2018-05-07T03:53:03.564Z,9.39
2018-05-07T03:54:03.742Z,9.34
2018-05-07T03:55:03.917Z,9.32
2018-05-07T03:56:04.090Z,9.36
2018-05-07T03:57:04.275Z,9.36
2018-05-07T03:58:04.449Z,9.36
2018-05-07T03:59:04.628Z,9.25
2018-05-07T04:00:04.804Z,9.29
2018-05-07T04:01:04.982Z,9.29
2018-05-07T04:02:05.163Z,9.36
2018-05-07T04:03:05.339Z,9.34
2018-05-07T04:04:05.516Z,9.28
2018-05-07T04:05:05.696Z,9.31
2018-05-07T04:06:05.874Z,9.32
2018-05-07T04:07:06.045Z,9.34
2018-05-07T04:08:06.236Z,9.23
2018-05-07T04:09:06.485Z,9.25
2018-05-07T04:10:06.582Z,9.23
2018-05-07T04:11:06.757Z,9.25
2018-05-07T04:12:06.939Z,9.32
2018-05-07T04:13:07.188Z,9.34
2018-05-07T04:14:07.294Z,9.54
2018-05-07T04:15:07.467Z,9.51
2018-05-07T04:16:07.648Z,9.47
2018-05-07T04:17:07.823Z,9.48
2018-05-07T04:18:08.002Z,9.51
2018-05-07T04:19:08.184Z,9.54
2018-05-07T04:20:08.359Z,9.65
2018-05-07T04:21:08.536Z,9.95
2018-05-07T04:22:08.717Z,10.22
2018-05-07T04:23:08.893Z,10.53
2018-05-07T04:24:09.078Z,10.72
2018-05-07T04:25:09.257Z,11.35
2018-05-07T04:26:09.437Z,11.63
2018-05-07T04:27:09.610Z,12.00
2018-05-07T04:28:09.784Z,12.40
2018-05-07T04:29:09.959Z,12.91
2018-05-07T04:30:10.141Z,13.22
2018-05-07T04:31:10.659Z,13.72
2018-05-07T04:32:10.492Z,13.89
2018-05-07T04:33:10.672Z,13.78
2018-05-07T04:34:10.856Z,13.93
2018-05-07T04:35:11.029Z,14.33
2018-05-07T04:36:11.222Z,14.58
2018-05-07T04:37:11.403Z,14.78
2018-05-07T04:38:11.585Z,15.07
2018-05-07T04:39:11.755Z,15.54
2018-05-07T04:40:11.947Z,15.39
2018-05-07T04:41:12.126Z,15.59
2018-05-07T04:42:12.296Z,15.58
2018-05-07T04:43:12.518Z,15.68
2018-05-07T04:44:12.660Z,15.75
2018-05-07T04:45:12.843Z,15.64
2018-05-07T04:46:13.031Z,15.77
2018-05-07T04:47:13.216Z,15.52
2018-05-07T04:48:13.396Z,15.92
2018-05-07T04:49:13.583Z,15.70
2018-05-07T04:50:13.763Z,15.86
2018-05-07T04:51:13.950Z,15.52
2018-05-07T04:52:14.204Z,15.77
2018-05-07T04:53:14.329Z,16.20
2018-05-07T04:54:14.513Z,16.42
2018-05-07T04:55:14.695Z,16.49
2018-05-07T04:56:14.888Z,16.49
2018-05-07T04:57:15.069Z,16.58
2018-05-07T04:58:15.256Z,16.84
2018-05-07T04:59:15.440Z,16.84
2018-05-07T05:00:15.637Z,16.66
2018-05-07T05:01:15.819Z,16.84
2018-05-07T05:02:16.014Z,16.96
2018-05-07T05:03:16.195Z,16.94
2018-05-07T05:04:16.389Z,17.31
2018-05-07T05:06:16.850Z,17.67
2018-05-07T05:07:16.959Z,17.86
2018-05-07T05:08:17.119Z,18.03
2018-05-07T05:09:17.310Z,17.94
2018-05-07T05:10:17.498Z,17.90
2018-05-07T05:11:17.687Z,17.94
2018-05-07T05:12:17.876Z,18.18
2018-05-07T05:13:18.064Z,18.44
2018-05-07T05:14:18.253Z,18.53
2018-05-07T05:15:18.450Z,18.81
2018-05-07T05:16:18.633Z,18.62
2018-05-07T05:17:18.815Z,18.65
2018-05-07T05:18:18.995Z,18.35
2018-05-07T05:19:19.241Z,18.44
2018-05-07T05:20:19.377Z,18.75
2018-05-07T05:21:19.613Z,18.80
2018-05-07T05:22:19.750Z,18.75
2018-05-07T05:23:19.938Z,18.59
2018-05-07T05:24:20.124Z,18.53
2018-05-07T05:25:20.314Z,18.71
2018-05-07T05:26:20.562Z,19.14
2018-05-07T05:27:20.765Z,19.08
2018-05-07T05:28:20.887Z,18.88
2018-05-07T05:29:21.075Z,19.07
2018-05-07T05:30:21.268Z,18.83
2018-05-07T05:31:21.466Z,19.09
2018-05-07T05:32:21.670Z,19.36
2018-05-07T05:33:21.841Z,19.33
2018-05-07T05:34:22.032Z,18.75
2018-05-07T05:35:22.524Z,18.83
2018-05-07T05:36:22.411Z,18.84
2018-05-07T05:37:22.665Z,18.81
2018-05-07T05:38:22.794Z,19.15
2018-05-07T05:39:22.985Z,19.26
2018-05-07T05:40:23.169Z,18.98
2018-05-07T05:41:23.361Z,19.29
2018-05-07T05:42:23.550Z,19.29
2018-05-07T05:43:23.740Z,19.44
2018-05-07T05:44:23.928Z,19.51
2018-05-07T05:45:24.118Z,19.39
2018-05-07T05:46:24.309Z,19.00
2018-05-07T05:48:24.688Z,18.92
2018-05-07T05:49:24.870Z,19.18
2018-05-07T05:50:25.053Z,19.45
2018-05-07T05:51:25.254Z,19.40
2018-05-07T05:52:25.442Z,19.29
2018-05-07T05:53:25.641Z,19.24
2018-05-07T05:54:25.817Z,19.44
2018-05-07T05:55:25.998Z,19.33
2018-05-07T05:56:26.219Z,18.83
2018-05-07T05:57:26.386Z,18.93
2018-05-07T05:58:26.565Z,19.44
2018-05-07T05:59:26.756Z,19.41
2018-05-07T06:00:26.960Z,19.66
2018-05-07T06:01:27.136Z,19.95
2018-05-07T06:02:27.339Z,20.10
2018-05-07T06:03:27.523Z,20.13
2018-05-07T06:04:27.705Z,19.95
2018-05-07T06:05:27.924Z,20.16
2018-05-07T06:06:28.107Z,19.86
2018-05-07T06:07:28.296Z,20.09
2018-05-07T06:09:28.671Z,20.22
2018-05-07T06:10:28.862Z,20.16
2018-05-07T06:11:29.050Z,20.24
2018-05-07T06:12:29.241Z,20.62
2018-05-07T06:13:29.429Z,20.87
2018-05-07T06:14:29.722Z,21.09
2018-05-07T06:15:29.812Z,21.11
2018-05-07T06:16:30.013Z,20.88
2018-05-07T06:17:30.183Z,21.06
2018-05-07T06:18:30.374Z,21.05
2018-05-07T06:19:30.568Z,21.06
2018-05-07T06:20:30.762Z,21.00
2018-05-07T06:21:30.950Z,21.24
2018-05-07T06:22:31.139Z,21.45
2018-05-07T06:23:31.334Z,21.24
2018-05-07T06:24:31.529Z,21.27
2018-05-07T06:25:31.752Z,21.25
2018-05-07T06:26:31.899Z,21.64
2018-05-07T06:27:32.087Z,21.99
2018-05-07T06:28:32.283Z,22.23
2018-05-07T06:29:32.477Z,22.51
2018-05-07T06:30:32.669Z,22.41
2018-05-07T06:31:32.858Z,22.88
2018-05-07T06:32:33.041Z,23.32
2018-05-07T06:33:33.256Z,22.11
2018-05-07T06:34:33.412Z,21.77
2018-05-07T06:35:33.600Z,22.07
2018-05-07T06:36:33.798Z,22.20
2018-05-07T06:37:33.986Z,22.08
2018-05-07T06:38:34.183Z,22.35
2018-05-07T06:39:34.367Z,21.52
2018-05-07T06:40:34.558Z,21.39
2018-05-07T06:41:34.753Z,21.51
2018-05-07T06:42:34.941Z,21.79
2018-05-07T06:43:35.132Z,22.17
2018-05-07T06:44:35.322Z,22.44
2018-05-07T06:45:35.520Z,22.06
2018-05-07T06:46:35.702Z,21.72
2018-05-07T06:47:35.895Z,22.43
2018-05-07T06:48:36.083Z,22.62
2018-05-07T06:49:36.281Z,22.72
2018-05-07T06:50:36.491Z,22.38
2018-05-07T06:51:36.651Z,22.83
2018-05-07T06:52:36.843Z,23.15
2018-05-07T06:53:37.019Z,22.75
2018-05-07T06:54:37.208Z,23.50
2018-05-07T06:55:37.405Z,23.44
2018-05-07T06:56:37.597Z,22.48
2018-05-07T06:57:37.794Z,22.43
2018-05-07T06:58:37.971Z,22.38
2018-05-07T06:59:38.168Z,22.22
2018-05-07T07:00:38.360Z,22.70
2018-05-07T07:01:38.549Z,23.23
2018-05-07T07:02:38.929Z,23.81
2018-05-07T07:03:38.931Z,23.69
2018-05-07T07:04:39.120Z,24.10
2018-05-07T07:05:39.316Z,22.68
2018-05-07T07:06:39.505Z,23.00
2018-05-07T07:07:39.692Z,23.51
2018-05-07T07:08:40.293Z,23.78
2018-05-07T07:09:40.123Z,24.06
2018-05-07T07:10:40.310Z,24.02
2018-05-07T07:11:40.493Z,24.17
2018-05-07T07:12:40.677Z,23.77
2018-05-07T07:13:40.871Z,23.54
2018-05-07T07:14:41.066Z,24.14
2018-05-07T07:15:41.258Z,23.78
2018-05-07T07:16:41.443Z,23.91
2018-05-07T07:17:41.630Z,24.14
2018-05-07T07:18:41.825Z,24.43
2018-05-07T07:19:42.016Z,24.69
2018-05-07T07:20:42.201Z,24.54
2018-05-07T07:21:42.452Z,25.54
2018-05-07T07:22:42.652Z,25.25
2018-05-07T07:23:42.803Z,24.42
2018-05-07T07:24:43.067Z,24.03
2018-05-07T07:25:43.176Z,23.99
2018-05-07T07:26:43.429Z,23.71
2018-05-07T07:27:43.705Z,24.58
2018-05-07T07:28:43.821Z,24.63
2018-05-07T07:29:43.986Z,25.06
2018-05-07T07:30:44.266Z,25.17
2018-05-07T07:31:44.324Z,24.69
2018-05-07T07:32:44.536Z,24.78
2018-05-07T07:33:44.800Z,24.66
2018-05-07T07:34:44.920Z,25.11
2018-05-07T07:36:45.405Z,25.53
2018-05-07T07:37:45.526Z,24.54
2018-05-07T07:38:46.276Z,25.53
2018-05-07T07:39:45.903Z,25.06
2018-05-07T07:40:46.092Z,25.25
2018-05-07T07:41:46.286Z,25.77
2018-05-07T07:42:46.481Z,24.70
2018-05-07T07:43:46.939Z,24.69
2018-05-07T07:44:46.862Z,24.61
2018-05-07T07:45:47.050Z,24.89
2018-05-07T07:46:47.254Z,25.25
2018-05-07T07:47:47.437Z,24.96
2018-05-07T07:48:47.628Z,24.88
2018-05-07T07:49:47.824Z,25.06
2018-05-07T07:50:48.015Z,25.31
2018-05-07T07:51:48.203Z,25.59
2018-05-07T07:52:48.394Z,25.29
2018-05-07T07:53:48.666Z,25.70
2018-05-07T07:54:48.782Z,25.36
2018-05-07T07:55:48.969Z,25.75
2018-05-07T07:56:49.159Z,25.70
2018-05-07T07:57:49.350Z,26.06
2018-05-07T07:58:49.546Z,25.43
2018-05-07T07:59:49.730Z,25.58
2018-05-07T08:00:49.921Z,25.65
2018-05-07T08:01:50.361Z,26.05
2018-05-07T08:02:50.306Z,25.26
2018-05-07T08:03:50.496Z,25.93
2018-05-07T08:04:50.690Z,26.29
2018-05-07T08:05:50.880Z,26.38
2018-05-07T08:06:51.067Z,26.84
2018-05-07T08:07:51.267Z,26.77
2018-05-07T08:08:51.458Z,26.47
2018-05-07T08:09:51.646Z,26.33
2018-05-07T08:10:51.838Z,26.47
2018-05-07T08:11:52.028Z,26.33
2018-05-07T08:12:52.220Z,26.52
2018-05-07T08:13:52.401Z,26.03
2018-05-07T08:14:52.663Z,26.21
2018-05-07T08:15:53.034Z,25.60
2018-05-07T08:16:52.981Z,25.14
2018-05-07T08:17:53.174Z,25.91
2018-05-07T08:18:53.363Z,26.29
2018-05-07T08:19:53.552Z,26.48
2018-05-07T08:20:53.758Z,26.45
2018-05-07T08:21:53.929Z,26.31
2018-05-07T08:22:54.134Z,26.03
2018-05-07T08:23:54.316Z,25.99
2018-05-07T08:24:54.507Z,25.07
2018-05-07T08:25:54.719Z,25.29
2018-05-07T08:26:54.889Z,25.54
2018-05-07T08:27:55.081Z,25.46
2018-05-07T08:28:55.273Z,25.87
2018-05-07T08:29:55.472Z,25.29
2018-05-07T08:30:55.671Z,25.99
2018-05-07T08:31:55.842Z,26.48
2018-05-07T08:32:56.033Z,26.74
2018-05-07T08:33:56.224Z,26.26
2018-05-07T08:34:56.442Z,26.48
2018-05-07T08:35:56.593Z,26.63
2018-05-07T08:36:56.782Z,26.80
2018-05-07T08:37:56.959Z,26.80
2018-05-07T08:38:57.156Z,26.75
2018-05-07T08:39:57.327Z,26.95
2018-05-07T08:40:57.513Z,26.74
2018-05-07T08:41:57.692Z,25.87
2018-05-07T08:42:57.891Z,25.51
2018-05-07T08:43:58.075Z,25.53
2018-05-07T08:44:58.296Z,25.60
2018-05-07T08:45:58.438Z,25.40
2018-05-07T08:46:58.712Z,25.41
2018-05-07T08:47:58.819Z,25.81
2018-05-07T08:48:58.997Z,26.13
2018-05-07T08:49:59.183Z,26.02
2018-05-07T08:50:59.462Z,26.18
2018-05-07T08:51:59.570Z,26.52
2018-05-07T08:52:59.830Z,26.71
2018-05-07T08:53:59.945Z,26.44
2018-05-07T08:55:00.150Z,26.15
2018-05-07T08:56:00.355Z,25.65
2018-05-07T08:57:00.530Z,25.77
2018-05-07T08:58:00.725Z,25.99
2018-05-07T08:59:00.917Z,26.68
2018-05-07T09:00:01.081Z,26.93
2018-05-07T09:01:01.280Z,26.63
2018-05-07T09:02:01.457Z,25.88
2018-05-07T09:03:01.642Z,24.43
2018-05-07T09:04:01.836Z,24.55
2018-05-07T09:05:02.276Z,24.81
2018-05-07T09:06:02.219Z,25.29
2018-05-07T09:07:02.405Z,24.60
2018-05-07T09:09:02.784Z,24.58
2018-05-07T09:10:02.975Z,24.29
2018-05-07T09:11:03.163Z,24.42
2018-05-07T09:12:03.365Z,24.53
2018-05-07T09:13:03.547Z,23.96
2018-05-07T09:14:03.737Z,24.16
2018-05-07T09:15:03.918Z,24.88
2018-05-07T09:16:04.109Z,25.29
2018-05-07T09:17:04.291Z,25.58
2018-05-07T09:18:04.480Z,25.23
2018-05-07T09:19:04.682Z,25.47
2018-05-07T09:20:04.868Z,24.85
2018-05-07T09:21:05.049Z,24.20
2018-05-07T09:22:05.228Z,23.81
2018-05-07T09:23:05.499Z,23.83
2018-05-07T09:24:05.586Z,24.89
2018-05-07T09:25:05.764Z,25.35
2018-05-07T09:26:05.947Z,25.28
2018-05-07T09:27:06.142Z,25.33
2018-05-07T09:28:06.571Z,25.44
2018-05-07T09:30:06.712Z,24.47
2018-05-07T09:31:06.889Z,23.63
2018-05-07T09:32:09.412Z,23.84
2018-05-07T09:33:07.255Z,24.26
2018-05-07T09:34:07.440Z,24.45
2018-05-07T09:35:07.792Z,24.69
2018-05-07T09:36:07.854Z,24.54
2018-05-07T09:37:08.195Z,23.95
2018-05-07T09:38:08.211Z,24.21
2018-05-07T09:39:08.485Z,24.23
2018-05-07T09:40:08.630Z,24.16
2018-05-07T09:41:08.779Z,24.01
2018-05-07T09:42:08.965Z,24.50
2018-05-07T09:43:09.240Z,24.69
2018-05-07T09:44:09.354Z,25.25
2018-05-07T09:45:09.488Z,24.73
2018-05-07T09:46:09.809Z,24.69
2018-05-07T09:47:09.831Z,23.69
2018-05-07T09:48:10.040Z,23.99
2018-05-07T09:49:10.218Z,24.01
2018-05-07T09:50:10.727Z,24.17
2018-05-07T09:51:10.606Z,24.14
2018-05-07T09:52:10.761Z,24.50
2018-05-07T09:53:10.947Z,25.23
2018-05-07T09:54:11.136Z,25.26
2018-05-07T09:55:11.296Z,25.22
2018-05-07T09:56:11.495Z,24.86
2018-05-07T09:57:11.645Z,24.55
2018-05-07T09:58:11.987Z,24.14
2018-05-07T09:59:12.094Z,24.73
2018-05-07T10:00:14.510Z,24.45
2018-05-07T10:01:12.556Z,24.38
2018-05-07T10:02:12.600Z,24.39
2018-05-07T10:03:12.777Z,24.30
2018-05-07T10:04:13.447Z,24.40
2018-05-07T10:05:13.135Z,24.18
2018-05-07T10:06:13.345Z,24.20
2018-05-07T10:07:15.596Z,24.17
2018-05-07T10:08:13.670Z,24.55
2018-05-07T10:09:13.848Z,24.29
2018-05-07T10:10:14.072Z,23.99
2018-05-07T10:11:14.221Z,23.84
2018-05-07T10:12:14.613Z,23.66
2018-05-07T10:13:14.567Z,23.27
2018-05-07T10:14:14.729Z,23.63
2018-05-07T10:15:15.023Z,23.21
2018-05-07T10:16:15.117Z,23.63
2018-05-07T10:17:15.281Z,24.03
2018-05-07T10:18:15.461Z,24.29
2018-05-07T10:19:15.646Z,24.74
2018-05-07T10:20:15.827Z,24.96
2018-05-07T10:21:16.016Z,24.53
2018-05-07T10:22:16.198Z,24.73
2018-05-07T10:23:16.374Z,23.48
2018-05-07T10:24:19.378Z,23.25
2018-05-07T10:25:22.687Z,22.96
2018-05-07T10:26:17.031Z,23.34
2018-05-07T10:27:17.249Z,23.44
2018-05-07T10:28:18.143Z,23.93
2018-05-07T10:29:17.559Z,23.73
2018-05-07T10:30:17.994Z,23.58
2018-05-07T10:31:20.669Z,23.66
2018-05-07T10:32:21.764Z,23.99
2018-05-07T10:33:18.252Z,23.54
2018-05-07T10:34:18.417Z,23.56
2018-05-07T10:35:18.706Z,23.73
2018-05-07T10:36:18.798Z,23.88
2018-05-07T10:37:18.957Z,24.03
2018-05-07T10:38:19.130Z,23.98
2018-05-07T10:39:19.300Z,24.29
2018-05-07T10:40:19.473Z,24.70
2018-05-07T10:41:19.905Z,24.70
2018-05-07T10:42:19.869Z,24.53
2018-05-07T10:43:20.062Z,24.32
2018-05-07T10:44:20.235Z,23.76
2018-05-07T10:45:20.430Z,23.59
2018-05-07T10:46:20.591Z,23.36
2018-05-07T10:47:20.767Z,23.09
2018-05-07T10:48:20.944Z,23.44
2018-05-07T10:49:21.270Z,23.32
2018-05-07T10:50:21.294Z,23.41
2018-05-07T10:51:21.475Z,22.76
2018-05-07T10:52:21.653Z,22.98
2018-05-07T10:53:21.913Z,23.10
2018-05-07T10:54:22.037Z,23.09
2018-05-07T10:55:22.208Z,23.46
2018-05-07T10:56:22.392Z,23.41
2018-05-07T10:57:22.558Z,23.21
2018-05-07T10:58:22.977Z,23.39
2018-05-07T10:59:22.920Z,23.47
2018-05-07T11:00:23.095Z,23.55
2018-05-07T11:01:23.279Z,23.56
2018-05-07T11:02:23.452Z,23.34
2018-05-07T11:03:23.643Z,23.40
2018-05-07T11:04:23.826Z,23.92
2018-05-07T11:05:24.037Z,23.99
2018-05-07T11:06:24.180Z,24.03
2018-05-07T11:07:24.443Z,24.11
2018-05-07T11:08:24.544Z,24.30
2018-05-07T11:09:24.702Z,24.17
2018-05-07T11:10:24.879Z,24.06
2018-05-07T11:11:25.050Z,24.35
2018-05-07T11:12:25.226Z,24.66
2018-05-07T11:13:25.416Z,24.88
2018-05-07T11:14:25.590Z,25.17
2018-05-07T11:15:25.752Z,24.54
2018-05-07T11:16:25.953Z,23.40
2018-05-07T11:17:26.133Z,23.34
2018-05-07T11:18:26.319Z,23.63
2018-05-07T11:19:26.498Z,23.84
2018-05-07T11:20:26.676Z,24.38
2018-05-07T11:21:26.903Z,24.51
2018-05-07T11:22:27.020Z,24.74
2018-05-07T11:23:27.221Z,24.85
2018-05-07T11:24:27.404Z,25.21
2018-05-07T11:25:27.594Z,25.23
2018-05-07T11:26:27.765Z,24.80
2018-05-07T11:27:27.939Z,24.78
2018-05-07T11:28:28.127Z,24.36
2018-05-07T11:29:28.310Z,24.65
2018-05-07T11:30:28.496Z,24.24
2018-05-07T11:31:28.677Z,23.80
2018-05-07T11:32:28.849Z,23.46
2018-05-07T11:33:29.021Z,23.81
2018-05-07T11:34:29.305Z,24.36
2018-05-07T11:35:29.428Z,24.58
2018-05-07T11:36:29.603Z,24.43
2018-05-07T11:37:29.797Z,23.78
2018-05-07T11:38:29.960Z,23.62
2018-05-07T11:39:30.129Z,23.55
2018-05-07T11:40:30.333Z,24.08
2018-05-07T11:41:30.530Z,24.33
2018-05-07T11:42:30.706Z,24.21
2018-05-07T11:43:31.068Z,23.63
2018-05-07T11:44:31.068Z,23.50
2018-05-07T11:45:31.228Z,23.77
2018-05-07T11:46:31.418Z,23.77
2018-05-07T11:47:31.667Z,24.02
2018-05-07T11:48:31.834Z,24.14
2018-05-07T11:49:31.955Z,24.17
2018-05-07T11:50:32.132Z,23.98
2018-05-07T11:51:32.321Z,23.88
2018-05-07T11:52:32.500Z,24.02
2018-05-07T11:53:32.694Z,23.87
2018-05-07T11:54:32.869Z,24.16
2018-05-07T11:55:33.055Z,24.47
2018-05-07T11:56:33.253Z,24.58
2018-05-07T11:57:33.408Z,24.76
2018-05-07T11:58:33.601Z,25.01
2018-05-07T11:59:33.761Z,25.17
2018-05-07T12:00:33.973Z,25.13
2018-05-07T12:01:35.337Z,25.35
2018-05-07T12:02:34.288Z,25.28
2018-05-07T12:03:34.478Z,25.22
2018-05-07T12:04:34.664Z,24.96
2018-05-07T12:05:34.846Z,24.40
2018-05-07T12:06:35.023Z,24.24
2018-05-07T12:07:35.190Z,24.05
2018-05-07T12:08:35.371Z,24.13
2018-05-07T12:09:35.539Z,24.57
2018-05-07T12:10:35.736Z,24.66
2018-05-07T12:11:35.907Z,25.04
2018-05-07T12:12:36.111Z,25.28
2018-05-07T12:13:36.894Z,25.28
2018-05-07T12:14:36.568Z,25.41
2018-05-07T12:15:37.080Z,25.50
2018-05-07T12:16:37.128Z,25.73
2018-05-07T12:17:37.074Z,25.59
2018-05-07T12:18:37.236Z,25.70
2018-05-07T12:19:37.389Z,25.77
2018-05-07T12:20:37.587Z,25.72
2018-05-07T12:21:37.765Z,25.73
2018-05-07T12:22:37.957Z,25.98
2018-05-07T12:23:38.384Z,26.02
2018-05-07T12:24:38.310Z,25.78
2018-05-07T12:25:38.466Z,25.98
2018-05-07T12:26:38.660Z,25.75
2018-05-07T12:27:38.827Z,24.89
2018-05-07T12:28:39.022Z,24.63
2018-05-07T12:29:39.179Z,24.60
2018-05-07T12:30:39.346Z,24.69
2018-05-07T12:31:39.787Z,25.01
2018-05-07T12:32:39.738Z,25.14
2018-05-07T12:33:40.166Z,25.38
2018-05-07T12:34:40.095Z,25.31
2018-05-07T12:35:40.278Z,25.43
2018-05-07T12:36:40.462Z,25.29
2018-05-07T12:37:40.676Z,25.03
2018-05-07T12:38:40.839Z,25.14
2018-05-07T12:39:41.029Z,25.46
2018-05-07T12:40:41.456Z,25.29
2018-05-07T12:41:41.503Z,25.43
2018-05-07T12:42:41.576Z,25.16
2018-05-07T12:43:41.750Z,25.06
2018-05-07T12:44:42.009Z,24.99
2018-05-07T12:45:42.129Z,24.84
2018-05-07T12:46:42.345Z,24.69
2018-05-07T12:47:42.538Z,24.85
2018-05-07T12:48:42.658Z,24.77
2018-05-07T12:49:42.851Z,25.26
2018-05-07T12:50:43.033Z,25.38
2018-05-07T12:51:43.203Z,25.28
2018-05-07T12:52:43.470Z,25.10
2018-05-07T12:53:43.840Z,24.91
2018-05-07T12:54:43.747Z,24.88
2018-05-07T12:55:43.929Z,25.32
2018-05-07T12:56:44.105Z,25.48
2018-05-07T12:57:44.545Z,25.73
2018-05-07T12:58:44.465Z,25.85
2018-05-07T12:59:44.635Z,25.78
2018-05-07T13:00:44.822Z,25.77
2018-05-07T13:01:44.999Z,25.60
2018-05-07T13:02:45.186Z,25.32
2018-05-07T13:03:45.379Z,25.33
2018-05-07T13:04:45.531Z,25.31
2018-05-07T13:05:45.708Z,24.85
2018-05-07T13:06:45.880Z,24.85